Time;durP1;ratioP1;P1;durP2;ratioP2;P2;SDS_P1;SDS_P2;PMS_P1;PMS_P2;Temp;Humidity;BMP_temperature;BMP_pressure;BME280_temperature;BME280_humidity;BME280_pressure;Samples;Min_cycle;Max_cycle;Signal;HPM_P1;HPM_P2
2023/02/08 00:03:28;;;;;;;4.47;1.55;;;-2.30;99.90;;;;;;4824924;29;20117;-90
2023/02/08 00:06:11;;;;;;;4.00;1.20;;;-2.40;99.90;;;;;;4832889;29;20046;-91
2023/02/08 00:12:51;;;;;;;6.27;1.60;;;-2.30;99.90;;;;;;4836092;29;20035;-90
2023/02/08 00:15:32;;;;;;;4.10;1.37;;;-2.40;99.90;;;;;;4800984;29;20058;-91
2023/02/08 00:18:17;;;;;;;5.10;1.23;;;-2.10;99.90;;;;;;4826385;29;20038;-90
2023/02/08 00:24:38;;;;;;;3.67;1.50;;;-2.50;99.90;;;;;;4816166;29;20034;-90
2023/02/08 00:27:50;;;;;;;5.37;1.23;;;-2.30;99.90;;;;;;4822661;29;20566;-90
2023/02/08 00:30:31;;;;;;;3.27;1.23;;;-1.90;99.90;;;;;;4821987;29;20050;-90
2023/02/08 00:33:11;;;;;;;7.20;1.57;;;-2.30;99.90;;;;;;4822843;29;20042;-91
2023/02/08 00:36:12;;;;;;;5.37;1.30;;;-2.30;99.90;;;;;;4826501;29;20042;-91
2023/02/08 00:39:26;;;;;;;;;;;;;;;;;;;;;
2023/02/08 00:44:47;;;;;;;3.07;1.07;;;-2.20;99.90;;;;;;4848171;23;20080;-91
2023/02/08 00:51:07;;;;;;;6.23;1.93;;;-2.10;99.90;;;;;;4820493;29;20113;-90
2023/02/08 00:53:57;;;;;;;5.47;1.40;;;-2.10;99.90;;;;;;4832638;29;20500;-91
2023/02/08 00:56:50;;;;;;;;;;;;;;;;;;;;;
2023/02/08 00:59:30;;;;;;;4.07;1.10;;;-2.20;99.90;;;;;;4824215;29;20030;-90
2023/02/08 01:02:10;;;;;;;5.57;1.60;;;-2.30;99.90;;;;;;4831915;29;20105;-91
2023/02/08 01:04:44;;;;;;;5.47;1.57;;;-2.10;99.90;;;;;;4822870;29;20042;-90
2023/02/08 01:07:21;;;;;;;2.93;1.07;;;-2.40;99.90;;;;;;4823393;29;20492;-90
2023/02/08 01:10:00;;;;;;;5.00;1.40;;;-3.10;99.90;;;;;;4823275;29;20022;-91
2023/02/08 01:12:38;;;;;;;6.13;1.90;;;-2.20;99.90;;;;;;4820603;29;20034;-88
2023/02/08 01:15:30;;;;;;;4.63;1.30;;;-2.30;99.90;;;;;;4818777;29;20069;-90
2023/02/08 01:18:16;;;;;;;2.70;1.13;;;-2.20;99.90;;;;;;4829358;29;20042;-90
2023/02/08 01:21:13;;;;;;;3.23;1.20;;;-1.00;99.90;;;;;;4829402;29;20030;-90
2023/02/08 01:23:59;;;;;;;2.87;1.03;;;-1.90;99.90;;;;;;4826562;29;20038;-91
2023/02/08 01:26:25;;;;;;;3.93;0.87;;;-2.40;99.90;;;;;;4822188;29;20043;-90
2023/02/08 01:29:11;;;;;;;3.03;1.10;;;-0.20;99.90;;;;;;4823763;29;20540;-89
2023/02/08 01:34:59;;;;;;;2.17;0.87;;;-0.50;99.90;;;;;;4826242;29;20034;-90
2023/02/08 01:37:39;;;;;;;2.63;1.17;;;-2.50;99.90;;;;;;4826022;29;20026;-90
2023/02/08 01:40:29;;;;;;;2.87;1.10;;;-0.40;99.90;;;;;;4825642;29;20026;-90
2023/02/08 01:43:12;;;;;;;3.93;1.57;;;-1.90;99.90;;;;;;4820964;29;20030;-90
2023/02/08 01:46:04;;;;;;;3.00;1.30;;;-1.60;99.90;;;;;;4821809;29;20055;-90
2023/02/08 01:49:21;;;;;;;;;;;;;;;;;;;;;
2023/02/08 01:52:12;;;;;;;4.87;1.63;;;-0.60;99.90;;;;;;4823684;29;20022;-91
2023/02/08 01:54:43;;;;;;;5.50;1.23;;;-3.00;99.90;;;;;;4823830;29;20042;-91
2023/02/08 01:57:17;;;;;;;3.17;0.57;;;0.00;99.90;;;;;;4821769;29;20031;-91
2023/02/08 01:59:54;;;;;;;9.50;1.83;;;-0.50;99.90;;;;;;4820842;29;20267;-91
2023/02/08 02:02:25;;;;;;;3.37;0.90;;;-2.40;99.90;;;;;;4824205;29;20496;-91
2023/02/08 02:04:51;;;;;;;6.95;1.48;;;-3.50;99.90;;;;;;4824885;29;20109;-90
2023/02/08 02:07:19;;;;;;;4.57;1.40;;;-0.30;99.90;;;;;;4825356;29;20062;-91
2023/02/08 02:10:03;;;;;;;4.43;1.27;;;-2.60;99.90;;;;;;4828518;29;20052;-91
2023/02/08 02:12:34;;;;;;;8.00;1.83;;;-2.20;99.90;;;;;;4824480;29;20061;-90
2023/02/08 02:15:00;;;;;;;4.93;1.50;;;-2.30;99.90;;;;;;4828136;29;20026;-90
2023/02/08 02:17:26;;;;;;;3.00;1.07;;;-2.30;99.90;;;;;;4828560;29;20048;-90
2023/02/08 02:20:13;;;;;;;3.63;1.30;;;-2.50;99.90;;;;;;4824476;29;20034;-91
2023/02/08 02:22:55;;;;;;;5.40;1.27;;;-2.30;99.90;;;;;;4833469;29;20698;-90
2023/02/08 02:25:32;;;;;;;5.10;1.60;;;-2.40;99.90;;;;;;4825405;29;20027;-91
2023/02/08 02:28:37;;;;;;;5.37;1.27;;;-2.30;99.90;;;;;;4818003;29;20109;-91
2023/02/08 02:31:27;;;;;;;5.67;1.50;;;;;;;;;;4835158;29;20022;-90
2023/02/08 02:34:00;;;;;;;2.77;1.00;;;-2.30;99.90;;;;;;4837659;29;20034;-91
2023/02/08 02:36:54;;;;;;;4.23;1.17;;;-2.30;99.90;;;;;;4825297;29;20523;-90
2023/02/08 02:39:33;;;;;;;6.67;1.30;;;-2.30;99.90;;;;;;4825057;29;20022;-89
2023/02/08 02:45:04;;;;;;;4.80;1.33;;;-2.60;99.90;;;;;;4824668;29;20117;-91
2023/02/08 02:47:35;;;;;;;4.53;1.23;;;-1.20;99.90;;;;;;4827509;29;20117;-91
2023/02/08 02:50:21;;;;;;;3.83;1.00;;;-0.70;99.90;;;;;;4826571;29;20042;-91
2023/02/08 02:53:29;;;;;;;5.83;1.70;;;-2.00;99.90;;;;;;4828004;29;20035;-90
2023/02/08 02:56:04;;;;;;;4.90;1.57;;;-2.40;99.90;;;;;;4838578;29;20038;-90
2023/02/08 02:58:31;;;;;;;6.30;1.07;;;-2.70;99.90;;;;;;4829857;29;20035;-91
2023/02/08 03:01:01;;;;;;;7.13;1.73;;;-2.50;99.90;;;;;;4829107;29;20072;-90
2023/02/08 03:03:32;;;;;;;6.50;1.20;;;-2.40;99.90;;;;;;4826999;29;20068;-90
2023/02/08 03:06:09;;;;;;;5.93;1.30;;;-2.50;99.90;;;;;;4824391;29;20086;-91
2023/02/08 03:08:57;;;;;;;5.20;1.47;;;-2.50;99.90;;;;;;4824335;29;20043;-91
2023/02/08 03:11:52;;;;;;;3.70;1.20;;;-1.50;99.90;;;;;;4822923;29;20047;-89
2023/02/08 03:14:39;;;;;;;5.57;1.30;;;0.00;99.90;;;;;;4818772;29;20178;-90
2023/02/08 03:17:40;;;;;;;3.30;1.57;;;-2.10;99.90;;;;;;4841067;29;20113;-91
2023/02/08 03:20:31;;;;;;;3.00;1.20;;;-2.10;99.90;;;;;;4858412;23;20512;-89
2023/02/08 03:23:03;;;;;;;3.40;1.60;;;-2.00;99.90;;;;;;4819105;29;20102;-90
2023/02/08 03:25:44;;;;;;;4.03;1.25;;;-2.30;99.90;;;;;;4819608;29;20083;-91
2023/02/08 03:28:24;;;;;;;3.40;1.10;;;-2.50;99.90;;;;;;4820622;29;20027;-91
2023/02/08 03:31:06;;;;;;;3.20;0.93;;;-2.80;99.90;;;;;;4820311;29;20396;-91
2023/02/08 03:33:38;;;;;;;3.97;1.30;;;-2.50;99.90;;;;;;4823240;29;20039;-91
2023/02/08 03:36:20;;;;;;;4.15;1.38;;;-2.90;99.90;;;;;;4822417;29;20515;-91
2023/02/08 03:38:49;;;;;;;8.68;1.65;;;-1.30;99.90;;;;;;4815771;29;20113;-91
2023/02/08 03:41:19;;;;;;;4.90;1.50;;;-1.90;99.90;;;;;;4823148;29;20026;-91
2023/02/08 03:44:09;;;;;;;3.37;1.77;;;-2.40;99.90;;;;;;4824946;29;20023;-91
2023/02/08 03:47:03;;;;;;;8.90;1.53;;;-2.70;99.90;;;;;;4822495;29;20400;-91
2023/02/08 03:49:36;;;;;;;5.13;1.17;;;-2.40;99.90;;;;;;4821306;29;20038;-90
2023/02/08 03:52:05;;;;;;;3.92;1.20;;;-2.50;99.90;;;;;;4823524;29;20069;-91
2023/02/08 03:54:35;;;;;;;5.87;1.57;;;-2.50;99.90;;;;;;4820079;29;20039;-91
2023/02/08 03:57:23;;;;;;;3.50;1.80;;;-2.80;99.90;;;;;;4827396;29;20034;-90
2023/02/08 04:00:01;;;;;;;4.77;1.37;;;-2.40;99.90;;;;;;4837896;29;20031;-91
2023/02/08 04:02:30;;;;;;;5.43;1.60;;;-2.60;99.90;;;;;;4828280;29;20117;-91
2023/02/08 04:04:56;;;;;;;3.10;1.07;;;-2.70;99.90;;;;;;4826603;29;20026;-91
2023/02/08 04:07:22;;;;;;;3.97;1.80;;;-2.80;99.90;;;;;;4824325;29;20034;-91
2023/02/08 04:09:48;;;;;;;10.20;1.83;;;-2.70;99.90;;;;;;4823076;29;20123;-91
2023/02/08 04:12:14;;;;;;;4.80;1.43;;;-3.00;99.90;;;;;;4824775;29;20086;-91
2023/02/08 04:14:39;;;;;;;4.80;1.80;;;-3.00;99.90;;;;;;4819151;29;20399;-91
2023/02/08 04:17:05;;;;;;;4.83;1.67;;;-2.80;99.90;;;;;;4823474;29;20170;-91
2023/02/08 04:19:31;;;;;;;4.60;1.03;;;-2.50;99.90;;;;;;4823028;29;20067;-91
2023/02/08 04:21:56;;;;;;;4.07;1.20;;;-1.90;99.90;;;;;;4825346;29;20075;-91
2023/02/08 04:24:22;;;;;;;6.87;1.37;;;-2.80;99.90;;;;;;4825154;29;20023;-91
2023/02/08 04:26:48;;;;;;;7.30;1.20;;;-2.40;99.90;;;;;;4824878;29;20817;-91
2023/02/08 04:29:13;;;;;;;5.20;2.07;;;-2.80;99.90;;;;;;4822760;29;20043;-91
2023/02/08 04:31:39;;;;;;;6.90;1.50;;;-2.70;99.90;;;;;;4824603;29;20030;-90
2023/02/08 04:34:04;;;;;;;6.67;1.67;;;-2.70;99.90;;;;;;4824353;29;20488;-91
2023/02/08 04:36:30;;;;;;;3.40;1.27;;;-2.80;99.90;;;;;;4828475;29;20057;-90
2023/02/08 04:38:56;;;;;;;12.93;1.67;;;-2.40;99.90;;;;;;4825149;29;20034;-91
2023/02/08 04:41:22;;;;;;;4.97;1.93;;;-2.90;99.90;;;;;;4825677;29;20049;-90
2023/02/08 04:43:47;;;;;;;4.60;1.80;;;-0.30;99.90;;;;;;4839561;29;20074;-91
2023/02/08 04:46:13;;;;;;;5.17;1.40;;;-4.20;99.90;;;;;;4846791;29;20017;-91
2023/02/08 04:48:38;;;;;;;6.73;2.10;;;-3.20;99.90;;;;;;4845296;29;20125;-91
2023/02/08 04:51:04;;;;;;;4.40;1.83;;;-2.80;99.90;;;;;;4831918;29;20053;-90
2023/02/08 04:53:30;;;;;;;5.73;1.47;;;-3.30;99.90;;;;;;4831800;29;20109;-90
2023/02/08 04:55:55;;;;;;;7.63;1.67;;;-3.00;99.90;;;;;;4831195;29;20865;-91
2023/02/08 04:58:22;;;;;;;4.23;1.27;;;-3.50;99.90;;;;;;4821827;29;20042;-90
2023/02/08 05:00:48;;;;;;;5.03;1.90;;;-3.00;99.90;;;;;;4826581;29;20030;-91
2023/02/08 05:03:14;;;;;;;5.20;2.10;;;;;;;;;;4825975;29;20039;-91
2023/02/08 05:05:39;;;;;;;2.97;1.20;;;-3.00;99.90;;;;;;4834754;29;20053;-91
2023/02/08 05:08:05;;;;;;;6.00;1.47;;;-3.10;99.90;;;;;;4827207;29;20041;-90
2023/02/08 05:10:31;;;;;;;7.87;2.30;;;-3.00;99.90;;;;;;4828934;29;20126;-90
2023/02/08 05:12:57;;;;;;;4.90;1.60;;;-2.90;99.90;;;;;;4822575;29;20062;-90
2023/02/08 05:15:25;;;;;;;6.80;1.50;;;-3.60;99.90;;;;;;4820082;29;20049;-91
2023/02/08 05:17:53;;;;;;;4.67;1.67;;;-1.70;99.90;;;;;;4824553;29;20049;-90
2023/02/08 05:20:19;;;;;;;6.63;2.00;;;-3.40;99.90;;;;;;4827986;29;20055;-90
2023/02/08 05:22:45;;;;;;;7.97;1.37;;;-3.30;99.90;;;;;;4829741;29;20026;-91
2023/02/08 05:25:10;;;;;;;6.57;1.40;;;-3.20;99.90;;;;;;4827376;29;20026;-90
2023/02/08 05:27:36;;;;;;;3.67;1.57;;;-3.00;99.90;;;;;;4831739;29;20030;-90
2023/02/08 05:30:03;;;;;;;5.50;1.67;;;-3.20;99.90;;;;;;4825010;29;20117;-91
2023/02/08 05:32:28;;;;;;;9.80;1.87;;;-3.00;99.90;;;;;;4825586;29;20062;-91
2023/02/08 05:34:54;;;;;;;2.73;1.30;;;-4.20;99.90;;;;;;4824817;29;20037;-91
2023/02/08 05:37:20;;;;;;;9.83;1.93;;;-3.40;99.90;;;;;;4825737;29;20087;-91
2023/02/08 05:39:45;;;;;;;6.97;1.97;;;-1.40;99.90;;;;;;4829991;29;20385;-91
2023/02/08 05:42:11;;;;;;;4.10;1.37;;;-3.40;99.90;;;;;;4828042;29;20031;-90
2023/02/08 05:44:37;;;;;;;4.97;1.77;;;-3.30;99.90;;;;;;4828180;29;20023;-91
2023/02/08 05:47:03;;;;;;;6.43;1.10;;;-3.30;99.90;;;;;;4829242;29;20102;-91
2023/02/08 05:49:29;;;;;;;3.47;1.57;;;-3.40;99.90;;;;;;4829294;29;20126;-91
2023/02/08 05:51:54;;;;;;;6.80;1.93;;;-3.30;99.90;;;;;;4827618;29;20099;-90
2023/02/08 05:54:20;;;;;;;5.70;1.67;;;-3.40;99.90;;;;;;4827889;29;20034;-92
2023/02/08 05:56:46;;;;;;;6.57;1.97;;;-3.60;99.90;;;;;;4831556;29;20065;-91
2023/02/08 05:59:11;;;;;;;4.23;1.67;;;-3.10;99.90;;;;;;4832284;29;20030;-91
2023/02/08 06:01:37;;;;;;;6.03;2.17;;;-1.70;99.90;;;;;;4826151;29;20064;-90
2023/02/08 06:04:03;;;;;;;5.07;1.50;;;-3.50;99.90;;;;;;4827340;29;20035;-91
2023/02/08 06:09:33;;;;;;;18.97;1.90;;;-3.30;99.90;;;;;;4905776;23;20069;-91
2023/02/08 09:20:26;;;;;;;6.07;2.03;;;-0.60;99.90;;;;;;3706668;23;1217439;-86
2023/02/08 09:22:55;;;;;;;5.73;2.13;;;-0.50;99.90;;;;;;4837391;29;20025;-86
2023/02/08 09:25:22;;;;;;;6.77;2.53;;;-0.40;99.90;;;;;;4835895;29;20030;-87
2023/02/08 09:27:48;;;;;;;4.87;2.13;;;-0.40;99.90;;;;;;4835533;29;20102;-86
2023/02/08 09:30:14;;;;;;;5.97;1.87;;;-0.30;99.90;;;;;;4836213;29;20106;-86
2023/02/08 09:32:40;;;;;;;8.00;2.67;;;-0.30;99.90;;;;;;4836530;29;20105;-86
2023/02/08 09:35:06;;;;;;;6.73;1.80;;;-0.20;99.90;;;;;;4834867;29;20478;-86
2023/02/08 09:37:35;;;;;;;7.30;2.93;;;;;;;;;;4834183;29;20186;-86
2023/02/08 09:40:01;;;;;;;12.17;2.70;;;1.00;99.90;;;;;;4835912;29;20126;-86
2023/02/08 09:42:36;;;;;;;6.40;2.17;;;0.10;99.90;;;;;;4835142;29;20146;-86
2023/02/08 09:45:43;;;;;;;8.30;2.03;;;0.20;99.90;;;;;;4837494;29;20066;-86
2023/02/08 09:48:23;;;;;;;7.63;2.30;;;0.30;99.90;;;;;;4836564;29;20038;-86
2023/02/08 09:51:18;;;;;;;10.17;2.50;;;0.40;99.90;;;;;;4836960;29;20028;-87
2023/02/08 09:53:49;;;;;;;5.40;2.10;;;0.50;99.90;;;;;;4833446;29;20042;-87
2023/02/08 09:56:21;;;;;;;5.35;1.25;;;0.60;99.90;;;;;;4836484;29;20030;-86
2023/02/08 09:58:52;;;;;;;7.87;2.27;;;0.60;99.90;;;;;;4836605;29;20077;-85
2023/02/08 10:01:20;;;;;;;9.35;2.35;;;0.70;99.90;;;;;;4837151;29;20195;-86
2023/02/08 10:03:47;;;;;;;7.03;2.30;;;0.80;99.90;;;;;;4834240;29;20539;-86
2023/02/08 10:06:18;;;;;;;6.23;2.13;;;0.90;99.90;;;;;;4836621;29;20490;-86
2023/02/08 10:08:46;;;;;;;12.00;2.80;;;1.00;99.90;;;;;;4836451;29;20388;-86
2023/02/08 10:11:36;;;;;;;6.17;2.00;;;1.00;99.90;;;;;;4836016;29;20055;-86
2023/02/08 10:14:24;;;;;;;4.90;2.40;;;1.00;99.90;;;;;;4838617;29;20407;-87
2023/02/08 10:17:13;;;;;;;5.90;2.30;;;1.00;99.90;;;;;;4847585;29;20474;-87
2023/02/08 10:19:48;;;;;;;7.47;2.70;;;1.00;99.90;;;;;;4836917;29;20060;-86
2023/02/08 10:22:55;;;;;;;8.03;2.57;;;0.90;99.90;;;;;;4837410;29;20038;-87
2023/02/08 10:25:53;;;;;;;9.20;3.13;;;1.00;99.90;;;;;;4839687;29;20030;-87
2023/02/08 10:28:30;;;;;;;10.93;2.27;;;0.80;99.90;;;;;;4837807;29;20038;-87
2023/02/08 10:31:22;;;;;;;10.13;2.60;;;1.10;99.90;;;;;;4840438;29;20029;-87
2023/02/08 10:34:07;;;;;;;5.20;1.38;;;1.20;99.90;;;;;;4841282;29;20030;-88
2023/02/08 10:36:40;;;;;;;10.53;2.40;;;1.40;99.90;;;;;;4840972;29;20042;-87
2023/02/08 10:39:20;;;;;;;7.10;3.10;;;1.50;99.90;;;;;;4844878;29;20041;-87
2023/02/08 10:41:46;;;;;;;8.17;2.50;;;1.20;99.90;;;;;;4845564;29;20030;-88
2023/02/08 10:52:04;;;;;;;9.30;2.63;;;2.70;99.90;;;;;;4852877;29;20414;-91
2023/02/08 23:07:12;;;;;;;9.10;3.17;;;-2.60;99.90;;;;;;3590868;23;20301;-89
2023/02/08 23:09:38;;;;;;;9.57;2.53;;;-3.00;99.90;;;;;;4840742;29;20042;-91
2023/02/08 23:12:04;;;;;;;5.87;2.33;;;-0.30;99.90;;;;;;4833225;29;20033;-90
2023/02/08 23:14:29;;;;;;;10.17;2.57;;;-2.60;99.90;;;;;;4839177;29;20072;-91
2023/02/08 23:16:58;;;;;;;6.20;2.47;;;-1.20;99.90;;;;;;4833914;29;20076;-90
2023/02/08 23:19:25;;;;;;;8.93;2.73;;;-2.00;99.90;;;;;;4823302;29;20039;-90
2023/02/08 23:21:50;;;;;;;9.07;2.63;;;-2.80;99.90;;;;;;4821332;29;20491;-90
2023/02/08 23:24:16;;;;;;;12.20;2.90;;;-2.70;99.90;;;;;;4814408;29;20050;-90
2023/02/08 23:26:42;;;;;;;8.47;2.90;;;-2.60;99.90;;;;;;4820490;29;20079;-90
2023/02/08 23:29:07;;;;;;;11.43;3.87;;;-2.70;99.90;;;;;;4837844;29;20445;-90
2023/02/08 23:31:33;;;;;;;8.93;2.63;;;-2.80;99.90;;;;;;4820088;29;20097;-89
2023/02/08 23:33:59;;;;;;;8.93;3.53;;;-2.80;99.90;;;;;;4831741;29;20110;-90
2023/02/08 23:36:26;;;;;;;7.20;2.37;;;-2.80;99.90;;;;;;4823392;29;20400;-90
2023/02/08 23:38:52;;;;;;;9.90;2.67;;;-3.10;99.90;;;;;;4821488;29;20038;-90
2023/02/08 23:41:20;;;;;;;13.10;3.40;;;-2.90;99.90;;;;;;4822405;29;20110;-90
2023/02/08 23:43:46;;;;;;;10.23;3.07;;;-2.80;99.90;;;;;;4822961;29;20031;-90
2023/02/08 23:46:21;;;;;;;11.47;3.30;;;-2.90;99.90;;;;;;4822154;29;20026;-90
2023/02/08 23:48:47;;;;;;;14.40;3.33;;;-2.90;99.90;;;;;;4815679;29;20040;-90
2023/02/08 23:51:14;;;;;;;8.80;2.60;;;-2.60;99.90;;;;;;4820846;29;20027;-90
2023/02/08 23:53:39;;;;;;;9.67;3.20;;;-3.00;99.90;;;;;;4821505;29;20403;-90
2023/02/08 23:56:26;;;;;;;9.67;3.53;;;-2.90;99.90;;;;;;4821579;29;20031;-90
2023/02/08 23:58:57;;;;;;;9.27;2.90;;;-2.90;99.90;;;;;;4821266;29;20113;-90
